createdAt,value
2018-07-19T00:01:22.567Z,93.00
2018-07-19T00:03:51.369Z,93.00
2018-07-19T00:06:19.657Z,93.10
2018-07-19T00:08:48.064Z,93.10
2018-07-19T00:11:16.511Z,93.20
2018-07-19T00:13:45.065Z,93.30
2018-07-19T00:16:13.561Z,93.30
2018-07-19T00:18:42.454Z,93.40
2018-07-19T00:21:11.322Z,93.40
2018-07-19T00:23:39.656Z,93.50
2018-07-19T00:26:08.078Z,93.50
2018-07-19T00:28:36.307Z,93.60
2018-07-19T00:31:04.469Z,93.70
2018-07-19T00:33:32.771Z,93.70
2018-07-19T00:36:01.087Z,93.70
2018-07-19T00:38:29.568Z,93.80
2018-07-19T00:40:57.869Z,93.90
2018-07-19T00:43:26.374Z,93.90
2018-07-19T00:45:54.666Z,93.90
2018-07-19T00:48:23.062Z,94.00
2018-07-19T00:50:51.575Z,94.00
2018-07-19T00:53:19.878Z,94.00
2018-07-19T00:55:48.046Z,94.10
2018-07-19T00:58:16.361Z,94.10
2018-07-19T01:00:44.732Z,94.10
2018-07-19T01:05:41.252Z,94.10
2018-07-19T01:08:09.394Z,94.20
2018-07-19T01:10:37.542Z,94.20
2018-07-19T01:13:06.549Z,94.20
2018-07-19T01:15:35.683Z,94.30
2018-07-19T01:18:04.066Z,94.40
2018-07-19T01:20:32.458Z,94.50
2018-07-19T01:23:00.755Z,94.50
2018-07-19T01:25:29.030Z,94.60
2018-07-19T01:27:57.668Z,94.60
2018-07-19T01:30:25.945Z,94.80
2018-07-19T01:32:54.457Z,94.80
2018-07-19T01:35:22.947Z,95.00
2018-07-19T01:37:51.992Z,95.10
2018-07-19T01:40:20.389Z,95.10
2018-07-19T01:42:48.679Z,95.10
2018-07-19T01:45:16.960Z,95.20
2018-07-19T01:47:45.250Z,95.20
2018-07-19T01:50:14.273Z,95.30
2018-07-19T01:52:42.664Z,95.30
2018-07-19T01:55:10.960Z,95.40
2018-07-19T02:02:35.542Z,95.60
2018-07-19T02:07:32.242Z,95.80
2018-07-19T02:14:56.923Z,96.00
2018-07-19T02:19:53.885Z,96.10
2018-07-19T02:22:22.159Z,96.20
2018-07-19T02:24:51.580Z,96.20
2018-07-19T02:27:19.947Z,96.30
2018-07-19T02:32:16.159Z,96.30
2018-07-19T02:34:44.767Z,96.40
2018-07-19T02:37:13.047Z,96.40
2018-07-19T02:39:41.443Z,96.40
2018-07-19T02:42:09.851Z,96.90
2018-07-19T02:44:38.356Z,96.60
2018-07-19T02:47:06.742Z,96.60
2018-07-19T02:52:03.157Z,96.80
2018-07-19T02:54:31.628Z,96.90
2018-07-19T02:59:27.874Z,97.00
2018-07-19T03:01:56.330Z,97.00
2018-07-19T03:04:25.120Z,97.10
2018-07-19T03:09:21.536Z,97.20
2018-07-19T03:11:49.748Z,97.30
2018-07-19T03:14:18.037Z,97.30
2018-07-19T03:16:46.516Z,97.40
2018-07-19T03:19:14.726Z,97.60
2018-07-19T03:21:43.016Z,97.60
2018-07-19T03:24:11.531Z,97.70
2018-07-19T03:26:39.831Z,97.70
2018-07-19T03:29:09.621Z,97.70
2018-07-19T03:31:38.267Z,97.80
2018-07-19T03:34:07.782Z,97.80
2018-07-19T03:36:36.067Z,97.80
2018-07-19T03:39:06.117Z,97.90
2018-07-19T03:41:34.536Z,98.00
2018-07-19T03:44:03.022Z,98.00
2018-07-19T03:46:31.542Z,98.00
2018-07-19T03:48:59.920Z,98.40
2018-07-19T03:51:28.310Z,98.20
2018-07-19T03:53:56.731Z,98.30
2018-07-19T03:56:25.016Z,98.30
2018-07-19T03:58:53.309Z,98.20
2018-07-19T04:01:21.824Z,98.10
2018-07-19T04:03:50.316Z,97.90
2018-07-19T04:06:18.418Z,97.80
2018-07-19T04:08:46.610Z,97.80
2018-07-19T04:11:15.130Z,97.60
2018-07-19T04:13:43.405Z,97.50
2018-07-19T04:16:11.804Z,97.30
2018-07-19T04:18:40.104Z,97.30
2018-07-19T04:21:08.468Z,97.00
2018-07-19T04:23:37.098Z,96.70
2018-07-19T04:28:33.805Z,96.30
2018-07-19T04:31:02.105Z,96.10
2018-07-19T04:33:30.507Z,96.00
2018-07-19T04:35:59.008Z,95.80
2018-07-19T04:38:27.311Z,95.60
2018-07-19T04:40:55.588Z,95.40
2018-07-19T04:43:23.786Z,95.30
2018-07-19T04:45:51.972Z,95.50
2018-07-19T04:50:48.370Z,95.80
2018-07-19T04:53:16.916Z,94.20
2018-07-19T04:55:45.034Z,92.10
2018-07-19T04:58:13.447Z,89.20
2018-07-19T05:03:10.050Z,80.00
2018-07-19T05:08:06.562Z,70.90
2018-07-19T05:10:35.427Z,66.20
2018-07-19T05:13:04.185Z,62.20
2018-07-19T05:15:32.597Z,58.70
2018-07-19T05:18:00.880Z,56.60
2018-07-19T05:20:29.271Z,54.30
2018-07-19T05:22:57.419Z,52.60
2018-07-19T05:25:26.177Z,49.80
2018-07-19T05:27:54.460Z,48.70
2018-07-19T05:30:22.869Z,47.70
2018-07-19T05:32:51.166Z,47.40
2018-07-19T05:35:19.362Z,46.20
2018-07-19T05:37:47.769Z,45.60
2018-07-19T05:40:15.947Z,45.40
2018-07-19T05:45:12.246Z,44.50
2018-07-19T05:47:40.838Z,45.60
2018-07-19T05:52:37.313Z,49.00
2018-07-19T05:55:05.767Z,50.60
2018-07-19T05:57:34.668Z,52.20
2018-07-19T06:00:02.982Z,53.50
2018-07-19T06:02:31.172Z,52.10
2018-07-19T06:04:59.660Z,51.90
2018-07-19T06:07:27.949Z,52.30
2018-07-19T06:09:56.467Z,53.10
2018-07-19T06:12:25.677Z,52.90
2018-07-19T06:14:54.281Z,51.60
2018-07-19T06:17:22.582Z,48.80
2018-07-19T06:19:51.015Z,45.80
2018-07-19T06:22:19.585Z,42.70
2018-07-19T06:24:47.789Z,40.50
2018-07-19T06:27:16.291Z,38.50
2018-07-19T06:29:44.553Z,36.70
2018-07-19T06:32:12.960Z,35.20
2018-07-19T06:34:41.803Z,33.50
2018-07-19T06:37:09.960Z,32.40
2018-07-19T06:42:06.551Z,30.80
2018-07-19T06:44:35.074Z,29.80
2018-07-19T06:47:03.787Z,29.10
2018-07-19T06:49:32.230Z,28.50
2018-07-19T06:52:00.676Z,28.20
2018-07-19T06:54:28.962Z,27.60
2018-07-19T06:59:25.674Z,27.20
2018-07-19T07:01:53.956Z,27.00
2018-07-19T07:04:22.516Z,26.90
2018-07-19T07:06:50.980Z,26.80
2018-07-19T07:09:19.367Z,26.30
2018-07-19T07:11:47.660Z,26.00
2018-07-19T07:16:43.852Z,25.50
2018-07-19T07:19:12.365Z,25.50
2018-07-19T07:21:40.867Z,25.30
2018-07-19T07:24:09.271Z,25.10
2018-07-19T07:26:37.871Z,24.90
2018-07-19T07:29:06.382Z,24.90
2018-07-19T07:31:34.869Z,24.60
2018-07-19T07:34:03.419Z,24.40
2018-07-19T07:36:31.966Z,24.20
2018-07-19T07:39:00.506Z,24.00
2018-07-19T07:41:29.016Z,23.80
2018-07-19T07:43:57.299Z,23.50
2018-07-19T07:46:26.082Z,23.40
2018-07-19T07:48:55.904Z,23.80
2018-07-19T07:51:24.440Z,23.70
2018-07-19T07:53:54.372Z,23.60
2018-07-19T07:56:24.936Z,23.60
2018-07-19T07:58:57.482Z,23.70
2018-07-19T08:01:27.518Z,23.80
2018-07-19T08:03:58.004Z,23.60
2018-07-19T08:06:28.001Z,23.40
2018-07-19T08:08:57.774Z,23.30
2018-07-19T08:11:27.623Z,23.30
2018-07-19T08:16:27.375Z,23.90
2018-07-19T08:18:57.709Z,24.60
2018-07-19T08:21:28.257Z,25.10
2018-07-19T08:23:57.658Z,25.40
2018-07-19T08:26:27.333Z,26.20
2018-07-19T08:28:57.232Z,26.30
2018-07-19T08:31:31.277Z,26.60
2018-07-19T08:34:00.989Z,27.50
2018-07-19T08:36:30.595Z,29.10
2018-07-19T08:39:00.158Z,29.80
2018-07-19T08:41:29.850Z,30.50
2018-07-19T08:43:59.896Z,31.60
2018-07-19T08:46:29.512Z,33.00
2018-07-19T08:49:00.000Z,33.90
2018-07-19T08:53:59.081Z,36.10
2018-07-19T08:58:57.776Z,37.40
2018-07-19T09:01:27.929Z,38.10
2018-07-19T09:03:57.193Z,38.70
2018-07-19T09:08:56.998Z,40.60
2018-07-19T09:11:27.291Z,41.10
2018-07-19T09:13:57.288Z,41.40
2018-07-19T09:16:26.641Z,41.90
2018-07-19T09:21:26.340Z,42.90
2018-07-19T09:23:56.169Z,43.20
2018-07-19T09:26:26.308Z,42.40
2018-07-19T09:28:56.143Z,42.10
2018-07-19T09:31:25.964Z,42.00
2018-07-19T09:33:56.564Z,42.20
2018-07-19T09:38:56.067Z,42.60
2018-07-19T09:41:26.089Z,43.60
2018-07-19T09:43:55.876Z,42.90
2018-07-19T09:46:25.740Z,42.90
2018-07-19T09:48:55.556Z,42.50
2018-07-19T09:51:26.063Z,42.10
2018-07-19T09:53:55.709Z,42.00
2018-07-19T09:56:26.049Z,42.00
2018-07-19T09:58:56.061Z,41.80
2018-07-19T10:01:25.749Z,41.60
2018-07-19T10:03:55.429Z,42.40
2018-07-19T10:06:25.967Z,42.60
2018-07-19T10:08:55.607Z,43.50
2018-07-19T10:11:25.455Z,43.50
2018-07-19T10:13:54.995Z,43.40
2018-07-19T10:16:23.360Z,43.20
2018-07-19T10:18:51.742Z,43.80
2018-07-19T10:21:20.260Z,44.20
2018-07-19T10:23:48.526Z,43.80
2018-07-19T10:26:17.121Z,43.90
2018-07-19T10:31:14.224Z,43.80
2018-07-19T10:36:10.846Z,43.70
2018-07-19T10:38:39.231Z,43.70
2018-07-19T10:43:35.919Z,42.20
2018-07-19T10:48:32.559Z,42.20
2018-07-19T10:51:00.842Z,42.10
2018-07-19T10:53:29.101Z,42.10
2018-07-19T10:55:58.659Z,42.40
2018-07-19T10:58:27.163Z,42.00
2018-07-19T11:00:55.677Z,41.80
2018-07-19T11:03:24.161Z,41.70
2018-07-19T11:05:52.549Z,41.70
2018-07-19T11:10:48.939Z,42.40
2018-07-19T11:13:17.300Z,42.80
2018-07-19T11:15:46.520Z,43.10
2018-07-19T11:18:15.119Z,43.50
2018-07-19T11:20:43.349Z,43.20
2018-07-19T11:23:11.615Z,43.50
2018-07-19T11:25:39.839Z,44.40
2018-07-19T11:28:08.048Z,45.00
2018-07-19T11:33:04.766Z,44.70
2018-07-19T11:35:33.293Z,43.70
2018-07-19T11:38:01.658Z,43.90
2018-07-19T11:40:30.445Z,43.30
2018-07-19T11:42:58.972Z,43.10
2018-07-19T11:45:27.297Z,43.20
2018-07-19T11:47:55.859Z,42.90
2018-07-19T11:52:51.835Z,43.60
2018-07-19T11:55:20.050Z,43.60
2018-07-19T12:02:44.512Z,44.70
2018-07-19T12:05:13.009Z,44.50
2018-07-19T12:10:09.626Z,43.30
2018-07-19T12:12:37.920Z,43.30
2018-07-19T12:15:06.311Z,43.00
2018-07-19T12:20:03.118Z,43.30
2018-07-19T12:22:31.728Z,43.20
2018-07-19T12:25:00.109Z,43.40
2018-07-19T12:27:28.388Z,43.10
2018-07-19T12:29:57.142Z,42.90
2018-07-19T12:32:25.424Z,42.90
2018-07-19T12:37:21.807Z,42.70
2018-07-19T12:42:18.395Z,43.00
2018-07-19T12:44:47.191Z,43.00
2018-07-19T12:47:15.599Z,42.30
2018-07-19T12:49:43.898Z,41.70
2018-07-19T12:52:12.868Z,41.70
2018-07-19T12:54:41.743Z,42.60
2018-07-19T12:57:10.032Z,42.50
2018-07-19T12:59:38.353Z,42.70
2018-07-19T13:02:06.691Z,42.30
2018-07-19T13:04:34.906Z,42.60
2018-07-19T13:07:03.191Z,42.30
2018-07-19T13:09:31.430Z,43.20
2018-07-19T13:14:27.894Z,43.30
2018-07-19T13:16:56.388Z,43.20
2018-07-19T13:19:24.808Z,43.40
2018-07-19T13:24:21.304Z,42.60
2018-07-19T13:29:17.902Z,42.50
2018-07-19T13:36:42.328Z,43.00
2018-07-19T13:39:10.761Z,43.20
2018-07-19T13:44:07.375Z,43.30
2018-07-19T13:49:03.643Z,42.60
2018-07-19T13:51:31.869Z,42.70
2018-07-19T13:54:44.151Z,43.40
2018-07-19T13:57:12.663Z,42.70
2018-07-19T13:59:41.127Z,41.80
2018-07-19T14:02:09.865Z,41.50
2018-07-19T14:04:38.881Z,41.20
2018-07-19T14:07:07.234Z,41.10
2018-07-19T14:12:04.267Z,42.50
2018-07-19T14:14:32.853Z,42.90
2018-07-19T14:17:01.478Z,42.70
2018-07-19T14:19:29.825Z,42.30
2018-07-19T14:21:58.967Z,42.40
2018-07-19T14:31:52.778Z,43.00
2018-07-19T14:34:21.291Z,42.60
2018-07-19T14:39:17.878Z,42.20
2018-07-19T14:44:14.159Z,43.30
2018-07-19T14:46:42.670Z,43.40
2018-07-19T14:49:11.063Z,43.30
2018-07-19T14:51:39.466Z,43.10
2018-07-19T14:59:04.113Z,44.00
2018-07-19T15:01:32.375Z,43.60
2018-07-19T15:04:00.899Z,43.60
2018-07-19T15:06:30.387Z,43.10
2018-07-19T15:08:58.665Z,43.20
2018-07-19T15:11:27.084Z,43.20
2018-07-19T15:13:55.981Z,43.30
2018-07-19T15:16:24.390Z,44.00
2018-07-19T15:18:52.664Z,44.20
2018-07-19T15:21:21.038Z,43.80
2018-07-19T15:23:49.395Z,43.30
2018-07-19T15:26:17.797Z,43.00
2018-07-19T15:28:46.506Z,43.10
2018-07-19T15:31:14.833Z,43.00
2018-07-19T15:33:43.273Z,43.00
2018-07-19T15:36:11.775Z,43.20
2018-07-19T15:38:40.157Z,42.80
2018-07-19T15:41:08.713Z,43.10
2018-07-19T15:43:37.205Z,42.50
2018-07-19T15:53:30.115Z,43.20
2018-07-19T15:55:58.575Z,43.60
2018-07-19T16:03:23.469Z,43.60
2018-07-19T16:05:51.745Z,43.10
2018-07-19T16:08:19.840Z,42.90
2018-07-19T16:10:48.097Z,43.40
2018-07-19T16:13:16.364Z,43.60
2018-07-19T16:18:13.167Z,43.20
2018-07-19T16:23:10.264Z,43.40
2018-07-19T16:28:06.864Z,43.30
2018-07-19T16:33:03.144Z,42.60
2018-07-19T16:40:27.724Z,42.80
2018-07-19T16:42:56.494Z,42.70
2018-07-19T16:45:24.946Z,42.20
2018-07-19T16:47:53.533Z,42.50
2018-07-19T16:50:21.749Z,42.90
2018-07-19T16:55:18.397Z,43.40
2018-07-19T16:57:46.947Z,43.30
2018-07-19T17:00:15.337Z,43.20
2018-07-19T17:05:12.967Z,42.90
2018-07-19T17:07:41.366Z,43.40
2018-07-19T17:10:09.747Z,43.40
2018-07-19T17:12:38.164Z,43.40
2018-07-19T17:15:07.072Z,43.70
2018-07-19T17:17:36.009Z,43.40
2018-07-19T17:20:04.515Z,43.70
2018-07-19T17:22:32.968Z,43.80
2018-07-19T17:25:01.125Z,43.90
2018-07-19T17:27:29.492Z,44.10
2018-07-19T17:29:58.421Z,44.40
2018-07-19T17:32:27.248Z,44.60
2018-07-19T17:34:56.047Z,44.70
2018-07-19T17:37:24.311Z,44.70
2018-07-19T17:39:52.801Z,44.80
2018-07-19T17:44:49.169Z,45.10
2018-07-19T17:47:17.597Z,45.40
2018-07-19T17:49:45.981Z,45.40
2018-07-19T17:52:15.013Z,45.60
2018-07-19T17:54:43.828Z,45.90
2018-07-19T17:57:12.182Z,46.20
2018-07-19T17:59:41.215Z,46.60
2018-07-19T18:02:09.746Z,46.80
2018-07-19T18:04:38.338Z,47.10
2018-07-19T18:07:06.950Z,47.00
2018-07-19T18:09:36.064Z,47.30
2018-07-19T18:12:04.757Z,47.30
2018-07-19T18:17:01.339Z,47.60
2018-07-19T18:29:22.043Z,49.10
2018-07-19T18:31:50.746Z,49.80
2018-07-19T18:34:19.339Z,50.30
2018-07-19T18:39:16.554Z,51.60
2018-07-19T18:41:44.951Z,52.10
2018-07-19T18:44:13.425Z,52.70
2018-07-19T18:46:42.021Z,53.20
2018-07-19T18:49:10.439Z,53.60
2018-07-19T18:54:08.023Z,54.10
2018-07-19T18:56:36.445Z,54.70
2018-07-19T18:59:04.844Z,55.30
2018-07-19T19:01:33.961Z,55.80
2018-07-19T19:04:02.246Z,56.50
2018-07-19T19:06:30.570Z,57.40
2018-07-19T19:08:58.878Z,58.20
2018-07-19T19:11:27.686Z,59.10
2018-07-19T19:13:56.733Z,60.00
2018-07-19T19:16:25.365Z,61.60
2018-07-19T19:18:53.922Z,63.50
2018-07-19T19:21:22.410Z,65.00
2018-07-19T19:23:51.136Z,66.80
2018-07-19T19:26:19.722Z,68.70
2018-07-19T19:28:48.217Z,70.50
2018-07-19T19:33:45.549Z,73.60
2018-07-19T19:36:15.017Z,75.20
2018-07-19T19:38:43.255Z,76.80
2018-07-19T19:43:41.370Z,80.00
2018-07-19T19:48:39.704Z,83.00
2018-07-19T19:53:36.289Z,85.80
2018-07-19T19:56:04.660Z,86.90
2018-07-19T19:58:33.423Z,88.00
2018-07-19T20:01:01.792Z,89.10
2018-07-19T20:03:32.432Z,90.10
2018-07-19T20:06:00.570Z,90.40
2018-07-19T20:08:28.858Z,90.70
2018-07-19T20:13:26.878Z,91.40
2018-07-19T20:15:55.481Z,92.10
2018-07-19T20:20:51.839Z,92.40
2018-07-19T20:23:20.263Z,92.60
2018-07-19T20:25:48.658Z,92.90
2018-07-19T20:28:17.461Z,93.10
2018-07-19T20:30:46.079Z,93.60
2018-07-19T20:33:14.593Z,93.50
2018-07-19T20:38:00.011Z,93.70
2018-07-19T20:40:28.427Z,94.00
2018-07-19T20:45:24.920Z,94.40
2018-07-19T20:52:50.126Z,94.80
2018-07-19T20:55:18.636Z,94.90
2018-07-19T20:57:47.114Z,95.10
2018-07-19T21:00:15.640Z,95.30
2018-07-19T21:02:43.933Z,95.50
2018-07-19T21:05:12.127Z,95.70
2018-07-19T21:07:40.549Z,95.90
2018-07-19T21:10:08.948Z,96.00
2018-07-19T21:15:06.170Z,96.20
2018-07-19T21:17:34.603Z,96.20
2018-07-19T21:20:02.929Z,96.40
2018-07-19T21:27:27.387Z,96.60
2018-07-19T21:29:55.763Z,96.70
2018-07-19T21:32:24.807Z,96.80
2018-07-19T21:34:53.111Z,96.70
2018-07-19T21:37:22.023Z,96.80
2018-07-19T21:42:18.201Z,97.10
2018-07-19T21:44:46.713Z,97.40
2018-07-19T21:47:15.309Z,97.60
2018-07-19T21:52:11.706Z,97.80
2018-07-19T21:54:39.990Z,97.70
2018-07-19T21:57:08.525Z,97.80
2018-07-19T21:59:36.600Z,97.70
2018-07-19T22:02:05.022Z,97.90
2018-07-19T22:04:33.612Z,98.00
2018-07-19T22:07:01.904Z,98.10
2018-07-19T22:09:30.368Z,98.40
2018-07-19T22:11:58.657Z,98.50
2018-07-19T22:14:27.159Z,98.60
2018-07-19T22:16:55.439Z,98.70
2018-07-19T22:21:51.992Z,98.60
2018-07-19T22:24:20.197Z,98.60
2018-07-19T22:26:48.662Z,98.70
2018-07-19T22:29:16.885Z,98.80
2018-07-19T22:31:45.375Z,98.90
2018-07-19T22:36:43.205Z,99.10
2018-07-19T22:39:11.939Z,99.50
2018-07-19T22:41:40.838Z,99.30
2018-07-19T22:44:09.120Z,99.50
2018-07-19T22:46:37.510Z,99.60
2018-07-19T22:49:05.821Z,99.60
2018-07-19T22:51:34.236Z,99.60
2018-07-19T22:56:30.815Z,99.70
2018-07-19T23:01:27.227Z,99.80
2018-07-19T23:03:56.147Z,99.90
2018-07-19T23:06:24.495Z,99.80
2018-07-19T23:08:53.704Z,99.80
2018-07-19T23:11:22.247Z,99.90
2018-07-19T23:13:50.520Z,99.90
2018-07-19T23:16:18.816Z,99.90
2018-07-19T23:18:47.194Z,99.90
2018-07-19T23:21:15.833Z,99.90
2018-07-19T23:23:44.145Z,99.90
2018-07-19T23:26:12.415Z,99.90
2018-07-19T23:28:40.599Z,99.90
2018-07-19T23:31:10.113Z,99.90
2018-07-19T23:33:38.649Z,99.90
2018-07-19T23:36:10.668Z,99.90
2018-07-19T23:38:50.948Z,99.90
2018-07-19T23:41:27.218Z,99.90
2018-07-19T23:44:00.915Z,99.90
2018-07-19T23:49:12.616Z,99.90
2018-07-19T23:51:41.022Z,99.90
2018-07-19T23:56:38.554Z,99.90
2018-07-19T23:59:08.894Z,99.90
